Time;durP1;ratioP1;P1;durP2;ratioP2;P2;SDS_P1;SDS_P2;PMS_P1;PMS_P2;Temp;Humidity;BMP_temperature;BMP_pressure;BME280_temperature;BME280_humidity;BME280_pressure;Samples;Min_cycle;Max_cycle;Signal;HPM_P1;HPM_P2
2021/06/26 00:01:15;;;;;;;8.32;6.40;;;;;;;;;;4274456;33;20124;-70
2021/06/26 00:03:40;;;;;;;15.18;6.72;;;;;;;;;;4274327;33;20522;-68
2021/06/26 00:06:06;;;;;;;8.93;6.70;;;;;;;;;;4274609;33;20116;-68
2021/06/26 00:08:32;;;;;;;9.13;6.15;;;;;;;;;;4274312;33;20431;-68
2021/06/26 00:10:58;;;;;;;10.43;6.53;;;;;;;;;;4274099;33;20119;-68
2021/06/26 00:13:24;;;;;;;9.70;5.93;;;;;;;;;;4274312;33;20143;-69
2021/06/26 00:43:17;;;;;;;10.35;5.57;;;;;;;;;;4996124;28;21091;-68
2021/06/26 00:45:44;;;;;;;8.98;5.47;;;;;;;;;;4253625;33;20135;-67
2021/06/26 00:48:10;;;;;;;9.35;5.68;;;;;;;;;;4258777;33;20112;-68
2021/06/26 00:50:36;;;;;;;9.85;6.03;;;;;;;;;;4248257;33;20482;-67
2021/06/26 00:53:02;;;;;;;14.57;5.60;;;;;;;;;;4255605;33;20260;-67
2021/06/26 00:55:29;;;;;;;10.70;6.40;;;;;;;;;;4262663;33;20114;-68
2021/06/26 00:58:00;;;;;;;11.98;5.72;;;;;;;;;;4262680;33;20114;-67
2021/06/26 01:00:27;;;;;;;12.55;5.37;;;;;;;;;;4262184;33;20558;-67
2021/06/26 01:02:53;;;;;;;9.32;5.80;;;;;;;;;;4236603;33;21236;-68
2021/06/26 01:05:19;;;;;;;11.30;6.18;;;;;;;;;;4248485;33;20104;-67
2021/06/26 01:07:47;;;;;;;11.07;6.28;;;;;;;;;;4225058;33;20132;-67
2021/06/26 01:10:13;;;;;;;9.45;5.87;;;;;;;;;;4236724;33;20437;-67
2021/06/26 01:12:39;;;;;;;9.35;5.72;;;;;;;;;;4236512;33;20113;-67
2021/06/26 01:15:05;;;;;;;10.60;6.05;;;;;;;;;;4248199;33;20591;-67
2021/06/26 01:17:31;;;;;;;16.08;5.85;;;;;;;;;;4249070;33;20534;-67
2021/06/26 01:19:58;;;;;;;10.50;6.12;;;;;;;;;;4238756;33;20119;-67
2021/06/26 01:22:28;;;;;;;10.88;5.82;;;;;;;;;;4262206;33;20630;-67
2021/06/26 01:24:54;;;;;;;9.18;6.00;;;;;;;;;;4250697;33;20132;-67
2021/06/26 01:27:20;;;;;;;12.95;6.25;;;;;;;;;;4250713;33;20116;-67
2021/06/26 01:29:48;;;;;;;13.65;6.25;;;;;;;;;;4275226;33;20115;-67
2021/06/26 01:32:14;;;;;;;11.57;6.70;;;;;;;;;;4262124;33;20080;-67
2021/06/26 01:34:40;;;;;;;12.68;6.12;;;;;;;;;;4275496;33;20222;-67
2021/06/26 01:37:05;;;;;;;12.70;6.45;;;;;;;;;;4262131;33;20114;-67
2021/06/26 01:39:31;;;;;;;11.52;5.82;;;;;;;;;;4238634;33;20523;-67
2021/06/26 01:41:57;;;;;;;12.35;7.12;;;;;;;;;;4262051;33;20123;-67
2021/06/26 01:44:23;;;;;;;10.93;6.00;;;;;;;;;;4256033;33;20441;-67
2021/06/26 01:46:50;;;;;;;10.68;6.60;;;;;;;;;;4246978;33;20128;-67
2021/06/26 01:49:17;;;;;;;11.45;7.03;;;;;;;;;;4248087;33;20421;-68
2021/06/26 01:51:44;;;;;;;20.30;7.80;;;;;;;;;;4248229;33;20135;-67
2021/06/26 01:54:11;;;;;;;13.02;6.28;;;;;;;;;;4236088;33;20116;-67
2021/06/26 01:56:37;;;;;;;7.85;6.90;;;;;;;;;;4236202;33;20101;-68
2021/06/26 01:59:03;;;;;;;11.20;6.78;;;;;;;;;;4236157;33;20095;-67
2021/06/26 02:01:29;;;;;;;9.23;6.87;;;;;;;;;;4236175;33;20097;-68
2021/06/26 02:03:55;;;;;;;10.95;6.82;;;;;;;;;;4236163;33;20111;-68
2021/06/26 02:06:21;;;;;;;20.88;7.78;;;;;;;;;;4236302;33;20124;-68
2021/06/26 02:08:47;;;;;;;14.60;6.85;;;;;;;;;;4247625;33;20325;-68
2021/06/26 02:11:13;;;;;;;8.43;6.85;;;;;;;;;;4235963;33;20144;-68
2021/06/26 02:13:38;;;;;;;17.48;7.35;;;;;;;;;;4260961;33;20452;-68
2021/06/26 02:16:04;;;;;;;11.55;6.97;;;;;;;;;;4260852;33;20144;-68
2021/06/26 02:18:30;;;;;;;10.52;7.68;;;;;;;;;;4253127;33;20483;-68
2021/06/26 02:20:56;;;;;;;9.15;6.12;;;;;;;;;;4262037;33;20119;-68
2021/06/26 02:23:22;;;;;;;15.20;8.15;;;;;;;;;;4261714;33;20131;-68
2021/06/26 02:25:48;;;;;;;11.25;7.43;;;;;;;;;;4250060;33;20531;-67
2021/06/26 02:28:14;;;;;;;15.40;7.95;;;;;;;;;;4261604;33;20154;-67
2021/06/26 02:30:40;;;;;;;17.70;8.55;;;;;;;;;;4273452;33;20195;-68
2021/06/26 02:33:06;;;;;;;10.40;6.93;;;;;;;;;;4250001;33;20100;-68
2021/06/26 02:35:32;;;;;;;14.98;7.70;;;;;;;;;;4261864;33;20607;-68
2021/06/26 02:37:58;;;;;;;12.80;6.50;;;;;;;;;;4273595;33;20102;-69
2021/06/26 02:40:24;;;;;;;11.75;7.40;;;;;;;;;;4274863;33;20096;-69
2021/06/26 02:42:50;;;;;;;14.13;7.47;;;;;;;;;;4261696;33;20092;-69
2021/06/26 02:45:15;;;;;;;13.45;7.78;;;;;;;;;;4258790;33;20182;-69
2021/06/26 02:47:41;;;;;;;13.70;7.32;;;;;;;;;;4247194;33;20222;-69
2021/06/26 02:50:08;;;;;;;14.50;8.25;;;;;;;;;;4247201;33;20116;-69
2021/06/26 02:52:34;;;;;;;17.95;8.50;;;;;;;;;;4235883;33;20112;-69
2021/06/26 02:55:00;;;;;;;21.83;8.48;;;;;;;;;;4247271;33;20142;-69
2021/06/26 02:57:25;;;;;;;16.65;8.95;;;;;;;;;;4247209;33;20112;-69
2021/06/26 02:59:52;;;;;;;15.32;8.02;;;;;;;;;;4260093;33;20559;-69
2021/06/26 03:02:18;;;;;;;12.18;8.27;;;;;;;;;;4247245;33;20114;-69
2021/06/26 03:04:44;;;;;;;12.80;7.87;;;;;;;;;;4224044;33;20121;-69
2021/06/26 03:07:10;;;;;;;14.77;9.18;;;;;;;;;;4247489;33;20309;-69
2021/06/26 03:09:36;;;;;;;21.25;8.80;;;;;;;;;;4247245;33;20495;-69
2021/06/26 03:12:03;;;;;;;12.65;8.57;;;;;;;;;;4235541;33;20223;-69
2021/06/26 03:14:28;;;;;;;12.98;8.45;;;;;;;;;;4235677;33;20195;-69
2021/06/26 03:16:54;;;;;;;18.17;9.50;;;;;;;;;;4247171;33;20154;-69
2021/06/26 03:19:20;;;;;;;17.67;9.85;;;;;;;;;;4235368;33;20210;-69
2021/06/26 03:21:46;;;;;;;17.83;9.98;;;;;;;;;;4235467;33;20104;-69
2021/06/26 03:24:12;;;;;;;18.83;9.63;;;;;;;;;;4235300;33;20112;-69
2021/06/26 03:26:38;;;;;;;19.33;9.15;;;;;;;;;;4223581;33;20136;-69
2021/06/26 03:29:05;;;;;;;17.17;9.82;;;;;;;;;;4260363;33;20147;-69
2021/06/26 03:31:31;;;;;;;18.37;9.80;;;;;;;;;;4235384;33;20187;-69
2021/06/26 03:33:57;;;;;;;19.42;8.82;;;;;;;;;;4235549;33;20100;-69
2021/06/26 03:36:24;;;;;;;15.73;9.68;;;;;;;;;;4260030;33;20462;-70
2021/06/26 03:38:50;;;;;;;14.85;9.18;;;;;;;;;;4235500;33;20187;-70
2021/06/26 03:41:16;;;;;;;19.23;9.82;;;;;;;;;;4246896;33;20625;-70
2021/06/26 03:43:42;;;;;;;16.62;9.40;;;;;;;;;;4259960;33;20135;-70
2021/06/26 03:46:08;;;;;;;18.52;9.95;;;;;;;;;;4259894;33;20211;-70
2021/06/26 03:48:34;;;;;;;14.40;8.80;;;;;;;;;;4246679;33;20137;-70
2021/06/26 03:51:00;;;;;;;13.82;8.30;;;;;;;;;;4223206;33;20519;-70
2021/06/26 03:53:27;;;;;;;13.23;9.23;;;;;;;;;;4235137;33;20433;-69
2021/06/26 03:55:52;;;;;;;19.33;10.30;;;;;;;;;;4247085;33;20092;-70
2021/06/26 03:58:22;;;;;;;15.93;9.55;;;;;;;;;;4259946;33;20263;-70
2021/06/26 04:00:49;;;;;;;14.82;9.55;;;;;;;;;;4259678;33;20097;-70
2021/06/26 04:03:17;;;;;;;13.65;8.65;;;;;;;;;;4246782;33;20100;-70
2021/06/26 04:05:46;;;;;;;21.20;9.38;;;;;;;;;;4235172;33;20194;-70
2021/06/26 04:08:12;;;;;;;13.20;8.55;;;;;;;;;;4246740;33;20114;-70
2021/06/26 04:10:38;;;;;;;15.68;7.97;;;;;;;;;;4247470;33;20151;-70
2021/06/26 04:13:04;;;;;;;14.73;8.80;;;;;;;;;;4237258;33;20128;-70
2021/06/26 04:15:30;;;;;;;10.63;8.38;;;;;;;;;;4261801;33;20547;-70
2021/06/26 04:17:56;;;;;;;13.57;9.32;;;;;;;;;;4225516;33;20112;-70
2021/06/26 04:20:22;;;;;;;13.73;9.13;;;;;;;;;;4248415;33;20131;-70
2021/06/26 04:22:48;;;;;;;15.95;9.48;;;;;;;;;;4225181;33;20131;-70
2021/06/26 04:25:14;;;;;;;16.80;9.23;;;;;;;;;;4236880;33;20187;-69
2021/06/26 04:27:41;;;;;;;14.68;8.30;;;;;;;;;;4236967;33;20522;-69
2021/06/26 04:30:07;;;;;;;14.65;7.87;;;;;;;;;;4225363;33;20101;-70
2021/06/26 04:32:37;;;;;;;12.43;8.50;;;;;;;;;;4236898;33;20124;-70
2021/06/26 04:35:05;;;;;;;16.65;7.87;;;;;;;;;;4249065;33;20112;-70
2021/06/26 04:37:30;;;;;;;15.90;9.35;;;;;;;;;;4261661;33;20480;-70
2021/06/26 04:39:56;;;;;;;14.98;8.18;;;;;;;;;;4248455;33;20191;-70
2021/06/26 04:42:22;;;;;;;14.30;8.93;;;;;;;;;;4236809;33;20120;-70
2021/06/26 04:44:48;;;;;;;24.02;8.75;;;;;;;;;;4261385;33;20109;-70
2021/06/26 04:47:14;;;;;;;17.35;9.27;;;;;;;;;;4236729;33;20131;-70
2021/06/26 04:49:40;;;;;;;21.35;8.88;;;;;;;;;;4224814;33;20220;-70
2021/06/26 04:52:07;;;;;;;12.32;8.75;;;;;;;;;;4261633;33;20196;-70
2021/06/26 04:54:33;;;;;;;18.65;8.98;;;;;;;;;;4237041;33;20119;-69
2021/06/26 04:56:59;;;;;;;13.50;9.00;;;;;;;;;;4236615;33;20139;-69
2021/06/26 04:59:25;;;;;;;13.88;9.07;;;;;;;;;;4236463;33;20134;-69
2021/06/26 05:01:51;;;;;;;17.15;9.45;;;;;;;;;;4261410;33;20532;-69
2021/06/26 05:04:17;;;;;;;14.50;9.07;;;;;;;;;;4236683;33;20112;-69
2021/06/26 05:06:43;;;;;;;15.18;8.25;;;;;;;;;;4261502;33;20215;-69
2021/06/26 05:09:08;;;;;;;20.05;8.25;;;;;;;;;;4248408;33;20124;-69
2021/06/26 05:11:34;;;;;;;15.18;8.50;;;;;;;;;;4261515;33;20220;-70
2021/06/26 05:14:00;;;;;;;15.68;9.18;;;;;;;;;;4248521;33;20096;-69
2021/06/26 05:16:26;;;;;;;18.48;9.10;;;;;;;;;;4261411;33;20173;-69
2021/06/26 05:18:52;;;;;;;16.58;8.60;;;;;;;;;;4248169;33;20127;-69
2021/06/26 05:21:19;;;;;;;15.43;9.65;;;;;;;;;;4236424;33;20116;-70
2021/06/26 05:23:45;;;;;;;18.35;8.23;;;;;;;;;;4248541;33;20339;-70
2021/06/26 05:26:11;;;;;;;16.45;9.15;;;;;;;;;;4236630;33;20176;-70
2021/06/26 05:28:37;;;;;;;14.77;8.63;;;;;;;;;;4261405;33;20119;-70
2021/06/26 05:31:04;;;;;;;20.10;9.10;;;;;;;;;;4248139;33;20147;-70
2021/06/26 05:33:30;;;;;;;14.48;8.02;;;;;;;;;;4236406;33;20220;-71
2021/06/26 05:35:56;;;;;;;15.88;9.10;;;;;;;;;;4248040;33;20132;-71
2021/06/26 05:38:21;;;;;;;23.10;9.50;;;;;;;;;;4261116;33;20202;-71
2021/06/26 05:40:47;;;;;;;17.02;9.00;;;;;;;;;;4261036;33;20524;-71
2021/06/26 05:43:13;;;;;;;14.80;9.02;;;;;;;;;;4224424;33;20111;-71
2021/06/26 05:45:39;;;;;;;14.38;9.05;;;;;;;;;;4247810;33;20119;-71
2021/06/26 05:48:06;;;;;;;14.77;8.63;;;;;;;;;;4236112;33;20108;-71
2021/06/26 05:50:32;;;;;;;11.35;8.80;;;;;;;;;;4247905;33;20206;-71
2021/06/26 05:52:58;;;;;;;14.45;7.87;;;;;;;;;;4248140;33;20343;-71
2021/06/26 05:55:25;;;;;;;13.30;8.15;;;;;;;;;;4235964;33;20105;-71
2021/06/26 05:57:51;;;;;;;20.65;8.45;;;;;;;;;;4261108;33;20089;-70
2021/06/26 06:00:18;;;;;;;10.65;7.93;;;;;;;;;;4248020;33;20152;-70
2021/06/26 06:02:45;;;;;;;15.90;9.20;;;;;;;;;;4247741;33;20111;-70
2021/06/26 06:05:13;;;;;;;11.85;8.80;;;;;;;;;;4213003;33;20219;-71
2021/06/26 06:07:40;;;;;;;16.40;8.77;;;;;;;;;;4247748;33;20229;-71
2021/06/26 06:10:07;;;;;;;14.18;8.40;;;;;;;;;;4224540;33;20603;-71
2021/06/26 06:12:33;;;;;;;17.92;8.57;;;;;;;;;;4224268;33;20108;-71
2021/06/26 06:15:00;;;;;;;15.40;9.05;;;;;;;;;;4247645;33;20113;-71
2021/06/26 06:17:26;;;;;;;15.93;8.82;;;;;;;;;;4236011;33;20108;-71
2021/06/26 06:19:52;;;;;;;17.40;8.68;;;;;;;;;;4236021;33;20169;-71
2021/06/26 06:22:18;;;;;;;14.90;7.97;;;;;;;;;;4260753;33;20618;-71
2021/06/26 06:24:44;;;;;;;23.42;10.00;;;;;;;;;;4260755;33;20203;-71
2021/06/26 06:27:10;;;;;;;10.30;7.00;;;;;;;;;;4235939;33;20136;-71
2021/06/26 06:29:36;;;;;;;16.80;9.13;;;;;;;;;;4235888;33;20124;-71
2021/06/26 06:32:03;;;;;;;14.07;8.93;;;;;;;;;;4260767;33;20108;-71
2021/06/26 06:34:29;;;;;;;11.82;8.07;;;;;;;;;;4260386;33;20103;-71
2021/06/26 06:36:55;;;;;;;17.33;7.05;;;;;;;;;;4235631;33;20116;-71
2021/06/26 06:39:21;;;;;;;13.98;8.32;;;;;;;;;;4247510;33;20124;-71
2021/06/26 06:41:47;;;;;;;15.85;8.00;;;;;;;;;;4235902;33;20236;-71
2021/06/26 06:44:12;;;;;;;13.73;8.18;;;;;;;;;;4235570;33;20100;-71
2021/06/26 06:46:38;;;;;;;8.90;5.43;;;;;;;;;;4260739;33;20134;-71
2021/06/26 06:49:04;;;;;;;13.88;7.70;;;;;;;;;;4247543;33;20096;-71
2021/06/26 06:51:30;;;;;;;12.63;7.80;;;;;;;;;;4260457;33;20503;-71
2021/06/26 06:53:58;;;;;;;6.22;4.97;;;;;;;;;;4260390;33;20252;-71
2021/06/26 06:56:24;;;;;;;10.25;8.18;;;;;;;;;;4235738;33;20211;-71
2021/06/26 06:58:50;;;;;;;6.57;5.25;;;;;;;;;;4260444;33;20635;-71
2021/06/26 07:01:15;;;;;;;9.95;7.28;;;;;;;;;;4260375;33;20223;-71
2021/06/26 07:03:41;;;;;;;7.90;6.72;;;;;;;;;;4235330;33;20101;-71
2021/06/26 07:06:07;;;;;;;7.68;5.55;;;;;;;;;;4223735;33;20189;-71
2021/06/26 07:08:33;;;;;;;14.77;8.00;;;;;;;;;;4247155;33;20116;-71
2021/06/26 07:10:59;;;;;;;3.30;3.00;;;;;;;;;;4246970;33;20135;-71
2021/06/26 07:13:25;;;;;;;11.63;7.65;;;;;;;;;;4260052;33;20562;-71
2021/06/26 07:15:51;;;;;;;8.90;8.00;;;;;;;;;;4260145;33;20564;-71
2021/06/26 07:18:17;;;;;;;11.55;6.18;;;;;;;;;;4260192;33;20147;-71
2021/06/26 07:20:43;;;;;;;14.32;7.78;;;;;;;;;;4235179;33;20206;-71
2021/06/26 07:23:08;;;;;;;12.20;7.37;;;;;;;;;;4246902;33;20527;-72
2021/06/26 07:25:34;;;;;;;9.50;6.72;;;;;;;;;;4235456;33;20100;-72
2021/06/26 07:28:00;;;;;;;9.48;7.68;;;;;;;;;;4247011;33;20092;-72
2021/06/26 07:30:26;;;;;;;6.97;4.60;;;;;;;;;;4235004;33;20120;-72
2021/06/26 07:32:52;;;;;;;5.80;5.00;;;;;;;;;;4235265;33;20212;-71
2021/06/26 07:35:18;;;;;;;5.18;3.53;;;;;;;;;;4223650;33;20108;-71
2021/06/26 07:37:44;;;;;;;8.73;6.45;;;;;;;;;;4260078;33;20113;-71
2021/06/26 07:40:11;;;;;;;7.57;6.25;;;;;;;;;;4259697;33;20123;-72
2021/06/26 07:42:37;;;;;;;11.10;7.07;;;;;;;;;;4260014;33;20219;-71
2021/06/26 07:45:04;;;;;;;7.95;6.20;;;;;;;;;;4224560;33;20523;-71
2021/06/26 07:47:29;;;;;;;13.45;8.30;;;;;;;;;;4225664;33;20262;-71
2021/06/26 07:49:55;;;;;;;11.10;7.55;;;;;;;;;;4225445;33;20170;-71
2021/06/26 07:52:21;;;;;;;10.88;6.85;;;;;;;;;;4249230;33;20132;-71
2021/06/26 07:54:47;;;;;;;10.05;7.12;;;;;;;;;;4248924;33;20531;-71
2021/06/26 07:57:13;;;;;;;8.68;6.93;;;;;;;;;;4248788;33;20108;-71
2021/06/26 07:59:39;;;;;;;4.93;3.40;;;;;;;;;;4248630;33;20124;-71
2021/06/26 08:02:05;;;;;;;6.18;4.87;;;;;;;;;;4261980;33;20135;-71
2021/06/26 08:04:31;;;;;;;12.88;6.93;;;;;;;;;;4237053;33;20097;-71
2021/06/26 08:06:57;;;;;;;8.70;6.95;;;;;;;;;;4262093;33;20124;-71
2021/06/26 08:09:23;;;;;;;6.90;5.78;;;;;;;;;;4248784;33;20116;-71
2021/06/26 08:11:48;;;;;;;13.43;4.65;;;;;;;;;;4248598;33;20112;-71
2021/06/26 08:14:14;;;;;;;5.53;4.45;;;;;;;;;;4248849;33;20196;-72
2021/06/26 08:16:40;;;;;;;8.93;6.80;;;;;;;;;;4225491;33;20127;-72
2021/06/26 08:19:06;;;;;;;10.85;7.65;;;;;;;;;;4261854;33;20445;-72
2021/06/26 08:21:32;;;;;;;9.57;6.72;;;;;;;;;;4236934;33;20143;-71
2021/06/26 08:23:58;;;;;;;7.93;6.62;;;;;;;;;;4237152;33;20115;-71
2021/06/26 08:26:24;;;;;;;10.68;6.60;;;;;;;;;;4261975;33;20417;-71
2021/06/26 08:28:50;;;;;;;3.47;3.17;;;;;;;;;;4261629;33;20111;-71
2021/06/26 08:31:16;;;;;;;9.65;7.47;;;;;;;;;;4237079;33;20203;-71
2021/06/26 08:33:42;;;;;;;10.02;7.55;;;;;;;;;;4248691;33;20108;-71
2021/06/26 08:36:08;;;;;;;9.40;7.82;;;;;;;;;;4248588;33;20244;-71
2021/06/26 08:38:35;;;;;;;11.63;7.07;;;;;;;;;;4236682;33;20199;-71
2021/06/26 08:41:01;;;;;;;8.32;7.12;;;;;;;;;;4248637;33;20116;-71
2021/06/26 08:43:27;;;;;;;13.07;6.03;;;;;;;;;;4248304;33;20139;-71
2021/06/26 08:45:54;;;;;;;8.05;6.18;;;;;;;;;;4248449;33;20204;-71
2021/06/26 08:48:20;;;;;;;4.47;3.75;;;;;;;;;;4248602;33;20104;-71
2021/06/26 08:50:46;;;;;;;10.88;6.60;;;;;;;;;;4248383;33;20223;-71
2021/06/26 08:53:12;;;;;;;9.05;6.62;;;;;;;;;;4236936;33;20097;-71
2021/06/26 08:55:38;;;;;;;7.05;6.18;;;;;;;;;;4224908;33;20533;-71
2021/06/26 08:58:04;;;;;;;10.25;5.28;;;;;;;;;;4248459;33;20273;-71
2021/06/26 09:00:30;;;;;;;6.12;4.80;;;;;;;;;;4236680;33;20227;-71
2021/06/26 09:03:23;;;;;;;4.70;4.12;;;;;;;;;;4236509;33;20121;-71
2021/06/26 09:05:49;;;;;;;7.82;4.90;;;;;;;;;;4233858;33;20112;-71
2021/06/26 09:08:20;;;;;;;10.30;6.10;;;;;;;;;;4261375;33;20104;-71
2021/06/26 09:10:47;;;;;;;7.37;6.05;;;;;;;;;;4213426;33;20497;-71
2021/06/26 09:13:24;;;;;;;7.57;5.28;;;;;;;;;;4224903;33;20554;-71
2021/06/26 09:16:15;;;;;;;11.82;7.07;;;;;;;;;;4249545;33;20440;-71
2021/06/26 09:18:51;;;;;;;8.23;6.28;;;;;;;;;;4248706;33;20260;-70
2021/06/26 09:21:25;;;;;;;9.88;6.57;;;;;;;;;;4261364;33;20208;-71
2021/06/26 09:24:09;;;;;;;5.90;4.12;;;;;;;;;;4261428;33;20128;-70
2021/06/26 09:26:36;;;;;;;7.87;6.55;;;;;;;;;;4237344;33;20587;-70
2021/06/26 09:29:17;;;;;;;8.85;6.57;;;;;;;;;;4236749;33;20104;-70
2021/06/26 09:31:56;;;;;;;10.60;4.20;;;;;;;;;;4261523;33;20143;-70
2021/06/26 09:34:24;;;;;;;5.82;4.37;;;;;;;;;;4236991;33;20099;-70
2021/06/26 09:37:03;;;;;;;10.52;6.37;;;;;;;;;;4236320;33;20630;-70
2021/06/26 09:39:45;;;;;;;2.80;2.58;;;;;;;;;;4236538;33;20108;-70
2021/06/26 09:42:25;;;;;;;10.18;6.90;;;;;;;;;;4247921;33;20424;-71
2021/06/26 09:44:51;;;;;;;7.50;5.70;;;;;;;;;;4260823;33;20108;-70
2021/06/26 09:47:30;;;;;;;6.80;6.10;;;;;;;;;;4247970;33;20120;-70
2021/06/26 09:50:16;;;;;;;16.42;7.35;;;;;;;;;;4247923;33;20120;-70
2021/06/26 09:52:56;;;;;;;7.95;5.95;;;;;;;;;;4248045;33;20111;-70
2021/06/26 09:55:32;;;;;;;10.30;7.35;;;;;;;;;;4236214;33;20194;-70
2021/06/26 09:58:11;;;;;;;8.63;6.68;;;;;;;;;;4261253;33;20116;-70
2021/06/26 10:00:40;;;;;;;6.93;5.85;;;;;;;;;;4248977;33;20124;-70
2021/06/26 10:03:06;;;;;;;9.57;6.20;;;;;;;;;;4260945;33;20107;-70
2021/06/26 10:05:33;;;;;;;7.60;6.62;;;;;;;;;;4236234;33;20116;-70
2021/06/26 10:08:00;;;;;;;4.07;3.65;;;;;;;;;;4235152;33;20091;-70
2021/06/26 10:10:26;;;;;;;8.73;5.57;;;;;;;;;;4224481;33;20169;-70
2021/06/26 10:12:53;;;;;;;6.43;4.12;;;;;;;;;;4224545;33;20107;-70
2021/06/26 10:15:21;;;;;;;6.03;5.35;;;;;;;;;;4247797;33;20091;-70
2021/06/26 10:17:47;;;;;;;8.70;6.20;;;;;;;;;;4236318;33;20100;-70
2021/06/26 10:20:15;;;;;;;8.75;6.65;;;;;;;;;;4260809;33;20128;-70
2021/06/26 10:22:42;;;;;;;15.52;6.78;;;;;;;;;;4247661;33;20119;-70
2021/06/26 10:25:09;;;;;;;10.38;6.75;;;;;;;;;;4235786;33;20139;-70
2021/06/26 10:27:35;;;;;;;5.90;4.87;;;;;;;;;;4247838;33;20205;-70
2021/06/26 10:30:14;;;;;;;7.40;5.68;;;;;;;;;;4247346;33;20227;-70
2021/06/26 10:32:56;;;;;;;10.63;4.37;;;;;;;;;;4224738;33;20107;-70
2021/06/26 10:35:30;;;;;;;5.28;3.70;;;;;;;;;;4235767;33;20125;-70
2021/06/26 10:38:09;;;;;;;3.35;2.58;;;;;;;;;;4236079;33;20123;-71
2021/06/26 10:40:42;;;;;;;7.07;5.55;;;;;;;;;;4224211;33;20109;-71
2021/06/26 10:43:15;;;;;;;3.95;3.35;;;;;;;;;;4247708;33;20226;-71
2021/06/26 10:45:41;;;;;;;6.12;4.72;;;;;;;;;;4247391;33;20103;-71
2021/06/26 10:48:17;;;;;;;7.75;5.07;;;;;;;;;;4260441;33;20199;-70
2021/06/26 10:50:48;;;;;;;9.20;6.20;;;;;;;;;;4247244;33;20097;-70
2021/06/26 10:53:36;;;;;;;8.43;4.85;;;;;;;;;;4260527;33;20096;-70
2021/06/26 10:56:12;;;;;;;6.22;5.55;;;;;;;;;;4260510;33;20500;-70
2021/06/26 10:58:39;;;;;;;9.55;5.95;;;;;;;;;;4260531;33;20092;-71
2021/06/26 11:01:21;;;;;;;9.38;6.20;;;;;;;;;;4247390;33;20116;-71
2021/06/26 11:03:59;;;;;;;7.57;6.28;;;;;;;;;;4213070;33;20131;-71
2021/06/26 11:06:26;;;;;;;9.85;6.05;;;;;;;;;;4235706;33;20131;-71
2021/06/26 11:08:56;;;;;;;9.57;5.80;;;;;;;;;;4224247;33;20211;-71
2021/06/26 11:11:27;;;;;;;7.20;4.57;;;;;;;;;;4247086;33;20208;-70
2021/06/26 11:14:03;;;;;;;6.20;5.10;;;;;;;;;;4224155;33;20446;-70
2021/06/26 11:16:29;;;;;;;9.02;6.07;;;;;;;;;;4224415;33;20097;-70
2021/06/26 11:18:56;;;;;;;7.20;5.85;;;;;;;;;;4260177;33;20107;-71
2021/06/26 11:21:22;;;;;;;6.05;3.83;;;;;;;;;;4260557;33;20148;-70
2021/06/26 11:23:51;;;;;;;10.27;6.57;;;;;;;;;;4247564;33;20143;-72
2021/06/26 11:26:17;;;;;;;13.23;5.82;;;;;;;;;;4247745;33;20100;-71
2021/06/26 11:28:43;;;;;;;15.75;6.43;;;;;;;;;;4260580;33;20115;-70
2021/06/26 11:31:09;;;;;;;6.97;6.28;;;;;;;;;;4247273;33;20120;-70
2021/06/26 11:33:39;;;;;;;7.32;4.47;;;;;;;;;;4260180;33;20219;-70
2021/06/26 11:36:09;;;;;;;10.35;5.78;;;;;;;;;;4247497;33;20124;-70
2021/06/26 11:38:35;;;;;;;11.02;5.60;;;;;;;;;;4247010;33;20112;-70
2021/06/26 11:41:08;;;;;;;12.60;6.25;;;;;;;;;;4235452;33;20539;-70
2021/06/26 11:43:34;;;;;;;11.02;5.82;;;;;;;;;;4235963;33;20128;-70
2021/06/26 11:46:04;;;;;;;7.97;5.97;;;;;;;;;;4233069;33;20116;-70
2021/06/26 11:48:30;;;;;;;11.40;5.53;;;;;;;;;;4233519;33;20097;-70
2021/06/26 11:50:57;;;;;;;12.10;6.05;;;;;;;;;;4232911;33;20138;-70
2021/06/26 11:53:27;;;;;;;8.80;5.95;;;;;;;;;;4246096;33;20120;-69
2021/06/26 11:56:03;;;;;;;10.25;4.50;;;;;;;;;;4220931;33;20097;-69
2021/06/26 11:58:48;;;;;;;5.07;4.57;;;;;;;;;;4232622;33;20101;-69
2021/06/26 12:01:36;;;;;;;;;;;;;;;;;;4246661;33;20116;-69
2021/06/26 12:04:02;;;;;;;7.55;5.35;;;;;;;;;;4233662;33;19972;-69
2021/06/26 12:06:36;;;;;;;11.77;7.87;;;;;;;;;;4220912;33;20512;-69
2021/06/26 12:09:04;;;;;;;9.40;5.97;;;;;;;;;;4244284;33;20204;-68
2021/06/26 12:11:31;;;;;;;12.57;6.22;;;;;;;;;;4244398;33;20092;-69
2021/06/26 12:13:58;;;;;;;9.82;7.28;;;;;;;;;;4244242;33;20129;-69
2021/06/26 12:16:25;;;;;;;10.32;6.45;;;;;;;;;;4232728;33;20188;-69
2021/06/26 12:19:05;;;;;;;9.18;6.57;;;;;;;;;;4232238;33;20132;-69
2021/06/26 12:21:41;;;;;;;9.35;5.82;;;;;;;;;;4244333;33;20117;-68
2021/06/26 12:24:09;;;;;;;10.23;6.45;;;;;;;;;;4232388;33;20112;-68
2021/06/26 12:26:35;;;;;;;8.75;5.90;;;;;;;;;;4244130;33;20168;-69
2021/06/26 12:29:01;;;;;;;10.40;6.65;;;;;;;;;;4232461;33;20124;-69
2021/06/26 12:31:27;;;;;;;6.85;5.57;;;;;;;;;;4221516;33;20120;-68
2021/06/26 12:34:07;;;;;;;8.60;5.75;;;;;;;;;;4246164;33;20175;-69
2021/06/26 12:36:33;;;;;;;6.50;5.90;;;;;;;;;;4234633;33;20438;-69
2021/06/26 12:38:58;;;;;;;11.02;6.43;;;;;;;;;;4246121;33;20136;-69
2021/06/26 12:41:25;;;;;;;10.55;5.53;;;;;;;;;;4223055;33;20137;-68
2021/06/26 12:43:55;;;;;;;9.75;6.57;;;;;;;;;;4234275;33;20284;-68
2021/06/26 12:46:21;;;;;;;13.43;6.70;;;;;;;;;;4236642;33;20148;-69
2021/06/26 12:48:53;;;;;;;9.23;5.72;;;;;;;;;;4248437;33;20119;-69
2021/06/26 12:51:19;;;;;;;9.35;6.28;;;;;;;;;;4237213;33;20488;-69
2021/06/26 12:53:49;;;;;;;9.40;6.68;;;;;;;;;;4246430;33;20128;-68
2021/06/26 12:56:25;;;;;;;12.30;5.90;;;;;;;;;;4248670;33;20192;-69
2021/06/26 12:59:01;;;;;;;12.40;6.28;;;;;;;;;;4248703;33;20111;-68
2021/06/26 13:01:35;;;;;;;8.32;6.20;;;;;;;;;;4249563;33;20468;-69
2021/06/26 13:04:04;;;;;;;10.68;6.78;;;;;;;;;;4248767;33;20096;-70
2021/06/26 13:06:57;;;;;;;6.18;5.53;;;;;;;;;;4226360;33;20093;-72
2021/06/26 13:09:32;;;;;;;;;;;;;;;;;;4249509;33;20231;-70
2021/06/26 13:12:18;;;;;;;11.40;4.82;;;;;;;;;;4261514;33;19964;-71
2021/06/26 13:14:44;;;;;;;11.82;6.57;;;;;;;;;;4261657;33;20100;-71
2021/06/26 13:17:11;;;;;;;7.62;6.07;;;;;;;;;;4261572;33;20699;-71
2021/06/26 13:19:37;;;;;;;10.73;5.60;;;;;;;;;;4248165;33;20116;-71
2021/06/26 13:22:03;;;;;;;13.35;7.32;;;;;;;;;;4236407;33;20116;-70
2021/06/26 13:24:29;;;;;;;6.90;5.87;;;;;;;;;;4248125;33;20154;-70
2021/06/26 13:26:55;;;;;;;9.10;6.00;;;;;;;;;;4236796;33;20195;-70
2021/06/26 13:29:21;;;;;;;9.65;6.40;;;;;;;;;;4261505;33;20132;-71
2021/06/26 13:31:47;;;;;;;9.10;7.12;;;;;;;;;;4236305;33;20109;-71
2021/06/26 13:34:14;;;;;;;10.88;7.30;;;;;;;;;;4248295;33;20108;-71
2021/06/26 13:36:40;;;;;;;8.23;6.72;;;;;;;;;;4236420;33;20114;-71
2021/06/26 13:39:06;;;;;;;13.07;7.25;;;;;;;;;;4224573;33;20124;-71
2021/06/26 13:41:32;;;;;;;10.40;7.03;;;;;;;;;;4261137;33;20108;-71
2021/06/26 13:43:59;;;;;;;9.20;6.65;;;;;;;;;;4247887;33;20195;-72
2021/06/26 13:46:25;;;;;;;8.82;7.18;;;;;;;;;;4261144;33;20124;-71
2021/06/26 13:48:51;;;;;;;10.88;7.35;;;;;;;;;;4224847;33;20127;-71
2021/06/26 13:51:17;;;;;;;11.05;7.95;;;;;;;;;;4236439;33;20165;-72
2021/06/26 13:53:43;;;;;;;11.63;7.93;;;;;;;;;;4261151;33;20116;-72
2021/06/26 13:56:09;;;;;;;12.98;7.78;;;;;;;;;;4261107;33;20147;-71
2021/06/26 13:58:35;;;;;;;11.35;7.95;;;;;;;;;;4236174;33;20540;-71
2021/06/26 14:01:01;;;;;;;10.85;7.30;;;;;;;;;;4247942;33;20121;-71
2021/06/26 14:03:27;;;;;;;10.60;7.37;;;;;;;;;;4261206;33;20608;-71
2021/06/26 14:05:53;;;;;;;8.02;6.80;;;;;;;;;;4261343;33;20183;-71
2021/06/26 14:08:18;;;;;;;9.02;7.55;;;;;;;;;;4247774;33;20452;-71
2021/06/26 14:10:49;;;;;;;8.65;7.20;;;;;;;;;;4261375;33;20124;-70
2021/06/26 14:13:15;;;;;;;12.80;7.72;;;;;;;;;;4260851;33;20230;-71
2021/06/26 14:15:40;;;;;;;7.47;6.15;;;;;;;;;;4260867;33;20563;-71
2021/06/26 14:18:06;;;;;;;8.52;6.95;;;;;;;;;;4236262;33;20248;-71
2021/06/26 14:20:32;;;;;;;14.43;8.45;;;;;;;;;;4247497;33;20117;-71
2021/06/26 14:22:59;;;;;;;13.23;7.25;;;;;;;;;;4224787;33;20124;-73
2021/06/26 14:25:25;;;;;;;9.70;6.93;;;;;;;;;;4236005;33;20132;-72
2021/06/26 14:27:52;;;;;;;6.47;4.60;;;;;;;;;;4235904;33;20461;-72
2021/06/26 14:30:18;;;;;;;6.28;4.45;;;;;;;;;;4247284;33;20544;-72
2021/06/26 14:32:44;;;;;;;8.55;4.00;;;;;;;;;;4260658;33;20464;-71
2021/06/26 14:35:10;;;;;;;12.27;5.60;;;;;;;;;;4235712;33;20120;-72
2021/06/26 14:37:36;;;;;;;5.25;4.57;;;;;;;;;;4247525;33;20264;-71
2021/06/26 14:40:03;;;;;;;20.48;5.60;;;;;;;;;;4247352;33;20237;-71
2021/06/26 14:42:28;;;;;;;14.73;5.50;;;;;;;;;;4260721;33;20484;-71
2021/06/26 14:44:54;;;;;;;8.52;4.75;;;;;;;;;;4239611;33;20123;-71
2021/06/26 14:47:20;;;;;;;5.18;3.60;;;;;;;;;;4247482;33;20104;-71
2021/06/26 14:49:46;;;;;;;4.50;3.85;;;;;;;;;;4247530;33;20124;-71
2021/06/26 14:52:12;;;;;;;18.02;5.90;;;;;;;;;;4212649;33;20120;-71
2021/06/26 14:54:38;;;;;;;19.45;7.47;;;;;;;;;;4260323;33;20210;-71
2021/06/26 14:57:05;;;;;;;16.73;6.78;;;;;;;;;;4260522;33;20595;-71
2021/06/26 14:59:31;;;;;;;30.10;7.25;;;;;;;;;;4235514;33;20390;-71
2021/06/26 15:01:57;;;;;;;14.18;4.62;;;;;;;;;;4247563;33;20127;-71
2021/06/26 15:04:23;;;;;;;21.65;7.72;;;;;;;;;;4260283;33;20558;-71
2021/06/26 15:06:48;;;;;;;11.80;4.62;;;;;;;;;;4260406;33;20220;-71